createdAt,value
2018-10-05T00:01:41.963Z,11.37
2018-10-05T00:04:10.641Z,11.38
2018-10-05T00:06:39.360Z,11.37
2018-10-05T00:09:12.393Z,11.36
2018-10-05T00:11:41.221Z,11.37
2018-10-05T00:14:10.287Z,11.40
2018-10-05T00:16:38.939Z,11.38
2018-10-05T00:19:07.584Z,11.35
2018-10-05T00:21:36.202Z,11.30
2018-10-05T00:24:04.780Z,11.28
2018-10-05T00:26:34.052Z,11.29
2018-10-05T00:29:02.616Z,11.29
2018-10-05T00:31:31.191Z,11.28
2018-10-05T00:33:59.888Z,11.26
2018-10-05T00:36:28.448Z,11.26
2018-10-05T00:38:57.012Z,11.27
2018-10-05T00:41:25.615Z,11.27
2018-10-05T00:43:54.188Z,11.27
2018-10-05T00:46:22.775Z,11.23
2018-10-05T00:48:51.560Z,11.22
2018-10-05T00:51:20.160Z,11.19
2018-10-05T00:53:48.752Z,11.13
2018-10-05T00:56:17.898Z,11.07
2018-10-05T00:58:46.545Z,11.02
2018-10-05T01:01:15.147Z,10.95
2018-10-05T01:03:43.902Z,10.89
2018-10-05T01:06:12.477Z,10.86
2018-10-05T01:08:41.136Z,10.80
2018-10-05T01:11:09.884Z,10.76
2018-10-05T01:13:38.498Z,10.72
2018-10-05T01:16:07.111Z,10.66
2018-10-05T01:18:35.956Z,10.62
2018-10-05T01:21:04.556Z,10.63
2018-10-05T01:23:33.273Z,10.64
2018-10-05T01:26:02.226Z,10.64
2018-10-05T01:28:30.805Z,10.67
2018-10-05T01:30:59.427Z,10.70
2018-10-05T01:33:28.484Z,10.76
2018-10-05T01:35:57.081Z,10.79
2018-10-05T01:38:25.711Z,10.82
2018-10-05T01:40:54.428Z,10.79
2018-10-05T01:43:22.980Z,10.72
2018-10-05T01:45:51.548Z,10.66
2018-10-05T01:48:20.412Z,10.58
2018-10-05T01:50:48.955Z,10.55
2018-10-05T01:53:17.519Z,10.52
2018-10-05T01:55:46.196Z,10.52
2018-10-05T01:58:14.755Z,10.54
2018-10-05T02:00:43.435Z,10.51
2018-10-05T02:03:12.419Z,10.44
2018-10-05T02:05:41.000Z,10.40
2018-10-05T02:08:09.706Z,10.35
2018-10-05T02:10:38.785Z,10.32
2018-10-05T02:13:07.380Z,10.30
2018-10-05T02:15:36.471Z,10.31
2018-10-05T02:18:05.124Z,10.30
2018-10-05T02:20:34.010Z,10.25
2018-10-05T02:23:02.663Z,10.23
2018-10-05T02:25:31.422Z,10.23
2018-10-05T02:27:59.995Z,10.23
2018-10-05T02:30:28.555Z,10.16
2018-10-05T02:32:57.533Z,10.10
2018-10-05T02:35:26.084Z,10.03
2018-10-05T02:37:54.644Z,9.99
2018-10-05T02:40:23.220Z,9.96
2018-10-05T02:42:51.780Z,9.93
2018-10-05T02:45:20.340Z,9.91
2018-10-05T02:47:48.970Z,9.89
2018-10-05T02:50:17.531Z,9.84
2018-10-05T02:52:46.136Z,9.80
2018-10-05T02:55:14.763Z,9.75
2018-10-05T02:57:43.324Z,9.72
2018-10-05T03:00:23.051Z,9.67
2018-10-05T03:02:51.608Z,9.67
2018-10-05T03:05:20.200Z,9.69
2018-10-05T03:07:49.020Z,9.68
2018-10-05T03:10:17.680Z,9.69
2018-10-05T03:12:46.255Z,9.65
2018-10-05T03:15:14.828Z,9.64
2018-10-05T03:17:43.402Z,9.65
2018-10-05T03:20:11.965Z,9.66
2018-10-05T03:22:40.568Z,9.69
2018-10-05T03:25:09.239Z,9.75
2018-10-05T03:27:38.304Z,9.80
2018-10-05T03:30:07.196Z,9.88
2018-10-05T03:32:35.819Z,9.97
2018-10-05T03:35:04.608Z,9.99
2018-10-05T03:37:33.518Z,10.05
2018-10-05T03:40:02.100Z,10.05
2018-10-05T03:42:30.664Z,10.04
2018-10-05T03:44:59.264Z,9.98
2018-10-05T03:47:27.840Z,9.95
2018-10-05T03:49:56.484Z,9.96
2018-10-05T03:52:25.761Z,9.98
2018-10-05T03:54:54.316Z,9.98
2018-10-05T03:57:23.355Z,10.00
2018-10-05T03:59:51.988Z,10.03
2018-10-05T04:02:20.570Z,10.06
2018-10-05T04:04:49.157Z,10.09
2018-10-05T04:07:17.757Z,10.09
2018-10-05T04:09:46.325Z,10.02
2018-10-05T04:12:14.904Z,9.96
2018-10-05T04:14:43.774Z,9.93
2018-10-05T04:17:12.328Z,9.91
2018-10-05T04:19:40.901Z,9.87
2018-10-05T04:22:09.679Z,9.82
2018-10-05T04:24:38.272Z,9.80
2018-10-05T04:27:06.880Z,9.79
2018-10-05T04:29:35.438Z,9.76
2018-10-05T04:32:03.987Z,9.71
2018-10-05T04:34:32.558Z,9.69
2018-10-05T04:37:01.149Z,9.67
2018-10-05T04:39:30.103Z,9.65
2018-10-05T04:41:58.693Z,9.60
2018-10-05T04:44:28.436Z,9.54
2018-10-05T04:46:57.040Z,9.45
2018-10-05T04:49:25.647Z,9.35
2018-10-05T04:51:54.244Z,9.28
2018-10-05T04:54:22.824Z,9.28
2018-10-05T04:56:51.413Z,9.31
2018-10-05T04:59:20.002Z,9.32
2018-10-05T05:01:48.600Z,9.30
2018-10-05T05:04:17.180Z,9.31
2018-10-05T05:06:45.908Z,9.36
2018-10-05T05:09:14.901Z,9.37
2018-10-05T05:11:43.528Z,9.42
2018-10-05T05:14:12.272Z,9.45
2018-10-05T05:16:41.039Z,9.60
2018-10-05T05:19:09.623Z,9.65
2018-10-05T05:21:38.291Z,9.69
2018-10-05T05:24:06.851Z,9.72
2018-10-05T05:26:35.428Z,9.78
2018-10-05T05:29:04.160Z,9.82
2018-10-05T05:31:32.702Z,9.86
2018-10-05T05:34:01.302Z,9.79
2018-10-05T05:36:29.872Z,9.79
2018-10-05T05:38:58.558Z,9.77
2018-10-05T05:41:27.107Z,9.76
2018-10-05T05:43:55.739Z,9.81
2018-10-05T05:46:24.319Z,9.78
2018-10-05T05:48:52.876Z,9.75
2018-10-05T05:51:21.460Z,9.69
2018-10-05T05:53:50.042Z,9.70
2018-10-05T05:56:18.612Z,9.66
2018-10-05T05:58:47.304Z,9.64
2018-10-05T06:01:15.907Z,9.73
2018-10-05T06:03:45.207Z,9.79
2018-10-05T06:06:14.053Z,9.83
2018-10-05T06:08:42.623Z,9.87
2018-10-05T06:11:11.740Z,9.92
2018-10-05T06:13:40.319Z,9.90
2018-10-05T06:16:08.970Z,9.93
2018-10-05T06:18:37.540Z,9.99
2018-10-05T06:21:06.215Z,10.01
2018-10-05T06:23:35.187Z,10.08
2018-10-05T06:26:03.745Z,10.12
2018-10-05T06:28:32.423Z,10.19
2018-10-05T06:31:01.129Z,10.28
2018-10-05T06:33:29.896Z,10.39
2018-10-05T06:35:58.589Z,10.46
2018-10-05T06:38:27.161Z,10.51
2018-10-05T06:40:55.715Z,10.61
2018-10-05T06:43:24.389Z,10.62
2018-10-05T06:45:52.948Z,10.82
2018-10-05T06:48:21.567Z,10.94
2018-10-05T06:50:50.595Z,11.06
2018-10-05T06:53:19.188Z,11.21
2018-10-05T06:55:47.784Z,11.38
2018-10-05T06:58:16.376Z,11.55
2018-10-05T07:00:45.155Z,11.67
2018-10-05T07:03:13.715Z,11.80
2018-10-05T07:05:42.355Z,12.05
2018-10-05T07:08:10.967Z,12.31
2018-10-05T07:10:39.495Z,12.68
2018-10-05T07:13:08.277Z,13.13
2018-10-05T07:15:36.858Z,13.66
2018-10-05T07:18:05.431Z,14.17
2018-10-05T07:20:34.076Z,14.77
2018-10-05T07:23:03.007Z,15.30
2018-10-05T07:25:31.576Z,15.80
2018-10-05T07:28:00.591Z,16.25
2018-10-05T07:30:29.143Z,16.55
2018-10-05T07:32:58.204Z,16.79
2018-10-05T07:35:26.804Z,17.00
2018-10-05T07:37:55.767Z,17.12
2018-10-05T07:40:24.331Z,17.44
2018-10-05T07:42:53.094Z,17.59
2018-10-05T07:45:21.635Z,17.66
2018-10-05T07:47:50.219Z,17.63
2018-10-05T07:50:18.905Z,17.62
2018-10-05T07:52:47.471Z,17.68
2018-10-05T07:55:16.054Z,17.84
2018-10-05T07:57:44.726Z,17.74
2018-10-05T08:00:13.474Z,18.04
2018-10-05T08:02:42.100Z,18.29
2018-10-05T08:05:10.768Z,18.45
2018-10-05T08:07:39.327Z,18.46
2018-10-05T08:10:07.947Z,18.65
2018-10-05T08:12:36.652Z,18.80
2018-10-05T08:15:06.067Z,18.97
2018-10-05T08:17:34.673Z,19.13
2018-10-05T08:20:03.316Z,19.20
2018-10-05T08:22:32.228Z,19.43
2018-10-05T08:25:00.794Z,19.38
2018-10-05T08:27:29.419Z,19.68
2018-10-05T08:29:57.980Z,19.87
2018-10-05T08:32:26.572Z,19.91
2018-10-05T08:34:55.167Z,20.20
2018-10-05T08:37:23.731Z,20.32
2018-10-05T08:39:52.390Z,20.27
2018-10-05T08:42:21.049Z,20.35
2018-10-05T08:44:49.611Z,20.53
2018-10-05T08:47:18.601Z,20.92
2018-10-05T08:49:47.185Z,21.10
2018-10-05T08:52:15.773Z,21.14
2018-10-05T08:54:44.336Z,21.30
2018-10-05T08:57:13.113Z,21.14
2018-10-05T08:59:41.667Z,21.40
2018-10-05T09:02:10.228Z,21.13
2018-10-05T09:04:38.928Z,21.55
2018-10-05T09:07:07.479Z,21.97
2018-10-05T09:09:36.044Z,22.45
2018-10-05T09:12:04.787Z,22.36
2018-10-05T09:14:33.351Z,22.43
2018-10-05T09:17:01.935Z,23.33
2018-10-05T09:19:30.855Z,23.46
2018-10-05T09:21:59.567Z,24.05
2018-10-05T09:24:28.126Z,24.17
2018-10-05T09:26:56.857Z,24.60
2018-10-05T09:29:25.447Z,24.72
2018-10-05T09:31:54.032Z,24.33
2018-10-05T09:34:22.838Z,24.38
2018-10-05T09:36:51.452Z,24.63
2018-10-05T09:39:20.052Z,25.30
2018-10-05T09:41:48.671Z,25.65
2018-10-05T09:44:17.269Z,25.93
2018-10-05T09:46:45.869Z,26.07
2018-10-05T09:49:14.577Z,25.84
2018-10-05T09:51:43.251Z,26.24
2018-10-05T09:54:11.811Z,26.36
2018-10-05T09:56:40.406Z,26.73
2018-10-05T09:59:09.159Z,26.78
2018-10-05T10:01:43.000Z,26.86
2018-10-05T10:04:11.564Z,26.73
2018-10-05T10:06:40.132Z,27.14
2018-10-05T10:09:10.247Z,27.48
2018-10-05T10:11:39.307Z,27.56
2018-10-05T10:14:07.927Z,28.19
2018-10-05T10:16:37.189Z,28.42
2018-10-05T10:19:05.924Z,28.33
2018-10-05T10:21:34.495Z,28.44
2018-10-05T10:24:04.008Z,28.65
2018-10-05T10:26:33.015Z,28.60
2018-10-05T10:29:01.712Z,28.98
2018-10-05T10:31:30.211Z,28.92
2018-10-05T10:33:58.775Z,28.85
2018-10-05T10:36:27.536Z,28.85
2018-10-05T10:38:56.156Z,28.97
2018-10-05T10:41:24.744Z,29.05
2018-10-05T10:43:53.307Z,28.86
2018-10-05T10:46:21.907Z,28.69
2018-10-05T10:48:50.486Z,28.32
2018-10-05T10:51:19.060Z,27.97
2018-10-05T10:53:47.888Z,27.96
2018-10-05T10:56:16.541Z,27.87
2018-10-05T10:58:45.028Z,27.48
2018-10-05T11:01:13.689Z,27.32
2018-10-05T11:03:42.251Z,27.06
2018-10-05T11:06:10.831Z,26.83
2018-10-05T11:08:39.463Z,27.34
2018-10-05T11:11:08.086Z,27.97
2018-10-05T11:13:36.676Z,28.55
2018-10-05T11:16:05.350Z,30.60
2018-10-05T11:18:33.931Z,31.76
2018-10-05T11:21:02.507Z,34.03
2018-10-05T11:23:31.188Z,35.07
2018-10-05T11:25:59.768Z,35.83
2018-10-05T11:28:28.362Z,35.97
2018-10-05T11:30:57.000Z,36.94
2018-10-05T11:33:25.623Z,36.37
2018-10-05T11:35:54.959Z,36.98
2018-10-05T11:38:25.303Z,38.31
2018-10-05T11:40:55.701Z,37.92
2018-10-05T11:43:25.704Z,39.18
2018-10-05T11:45:54.615Z,40.38
2018-10-05T11:48:23.703Z,40.44
2018-10-05T11:50:54.467Z,41.05
2018-10-05T11:53:24.704Z,40.48
2018-10-05T11:55:54.476Z,41.51
2018-10-05T11:58:24.587Z,39.25
2018-10-05T12:00:54.382Z,37.21
2018-10-05T12:03:23.148Z,34.03
2018-10-05T12:05:51.596Z,31.19
2018-10-05T12:08:20.430Z,29.95
2018-10-05T12:10:50.640Z,28.17
2018-10-05T12:13:21.075Z,27.09
2018-10-05T12:15:51.412Z,26.78
2018-10-05T12:18:22.112Z,26.19
2018-10-05T12:20:52.069Z,24.90
2018-10-05T12:23:21.130Z,24.98
2018-10-05T12:25:50.251Z,24.95
2018-10-05T12:28:20.152Z,24.88
2018-10-05T12:30:48.715Z,24.74
2018-10-05T12:33:17.442Z,24.65
2018-10-05T12:35:46.616Z,24.34
2018-10-05T12:38:16.863Z,24.40
2018-10-05T12:40:45.452Z,24.14
2018-10-05T12:43:14.144Z,23.99
2018-10-05T12:45:42.822Z,23.57
2018-10-05T12:48:12.766Z,23.55
2018-10-05T12:50:42.138Z,23.65
2018-10-05T12:53:10.977Z,23.64
2018-10-05T12:55:39.706Z,23.54
2018-10-05T12:58:08.371Z,23.71
2018-10-05T13:00:37.047Z,23.71
2018-10-05T13:03:05.704Z,23.70
2018-10-05T13:05:34.292Z,23.53
2018-10-05T13:08:03.468Z,23.32
2018-10-05T13:10:32.032Z,23.24
2018-10-05T13:13:00.618Z,23.16
2018-10-05T13:15:29.431Z,23.30
2018-10-05T13:17:58.072Z,23.27
2018-10-05T13:20:26.672Z,23.28
2018-10-05T13:22:55.291Z,23.28
2018-10-05T13:25:23.860Z,23.21
2018-10-05T13:27:52.435Z,23.19
2018-10-05T13:30:21.135Z,23.17
2018-10-05T13:32:49.797Z,23.23
2018-10-05T13:35:18.392Z,23.18
2018-10-05T13:37:47.019Z,23.23
2018-10-05T13:40:15.599Z,23.12
2018-10-05T13:42:44.156Z,23.04
2018-10-05T13:45:12.764Z,23.11
2018-10-05T13:47:41.344Z,23.15
2018-10-05T13:50:12.196Z,23.22
2018-10-05T13:52:40.823Z,23.30
2018-10-05T13:55:09.408Z,23.38
2018-10-05T13:57:38.021Z,23.24
2018-10-05T14:00:06.876Z,23.10
2018-10-05T14:02:35.499Z,23.16
2018-10-05T14:05:04.203Z,23.22
2018-10-05T14:07:32.775Z,23.17
2018-10-05T14:10:01.353Z,23.18
2018-10-05T14:12:31.032Z,23.19
2018-10-05T14:15:00.485Z,23.16
2018-10-05T14:17:30.311Z,23.10
2018-10-05T14:19:58.919Z,23.12
2018-10-05T14:22:27.508Z,23.19
2018-10-05T14:24:56.184Z,23.27
2018-10-05T14:27:26.343Z,23.26
2018-10-05T14:29:56.928Z,23.14
2018-10-05T14:32:26.392Z,23.11
2018-10-05T14:34:56.127Z,23.20
2018-10-05T14:37:26.083Z,23.14
2018-10-05T14:39:56.016Z,23.18
2018-10-05T14:42:26.672Z,23.09
2018-10-05T14:44:56.648Z,23.03
2018-10-05T14:47:26.923Z,23.04
2018-10-05T14:49:56.596Z,23.08
2018-10-05T14:52:27.228Z,23.09
2018-10-05T14:54:57.142Z,23.15
2018-10-05T14:57:27.476Z,23.09
2018-10-05T14:59:58.169Z,23.15
2018-10-05T15:02:27.583Z,23.18
2018-10-05T15:04:58.244Z,23.11
2018-10-05T15:07:26.883Z,23.11
2018-10-05T15:09:55.972Z,23.04
2018-10-05T15:12:25.135Z,22.91
2018-10-05T15:14:54.598Z,22.98
2018-10-05T15:17:23.524Z,22.94
2018-10-05T15:19:54.224Z,22.87
2018-10-05T15:22:24.119Z,22.92
2018-10-05T15:24:52.743Z,22.90
2018-10-05T15:27:22.061Z,22.86
2018-10-05T15:29:52.564Z,22.84
2018-10-05T15:32:22.176Z,22.78
2018-10-05T15:34:51.380Z,22.80
2018-10-05T15:37:20.358Z,22.82
2018-10-05T15:39:49.495Z,22.72
2018-10-05T15:42:18.582Z,22.68
2018-10-05T15:44:47.340Z,22.69
2018-10-05T15:47:17.435Z,22.83
2018-10-05T15:49:46.728Z,22.82
2018-10-05T15:52:15.310Z,22.84
2018-10-05T15:54:43.966Z,22.76
2018-10-05T15:57:12.619Z,22.70
2018-10-05T15:59:41.159Z,22.64
2018-10-05T16:02:09.835Z,22.59
2018-10-05T16:04:38.429Z,22.57
2018-10-05T16:07:07.040Z,22.55
2018-10-05T16:09:35.923Z,22.51
2018-10-05T16:12:04.560Z,22.43
2018-10-05T16:14:33.196Z,22.39
2018-10-05T16:17:01.839Z,22.36
2018-10-05T16:19:30.448Z,22.33
2018-10-05T16:21:59.070Z,22.35
2018-10-05T16:24:32.988Z,22.29
2018-10-05T16:27:01.579Z,22.21
2018-10-05T16:29:30.168Z,22.15
2018-10-05T16:31:58.828Z,22.13
2018-10-05T16:34:27.400Z,22.14
2018-10-05T16:36:55.960Z,22.10
2018-10-05T16:39:24.824Z,22.07
2018-10-05T16:41:53.411Z,21.98
2018-10-05T16:44:21.988Z,21.84
2018-10-05T16:46:50.652Z,21.76
2018-10-05T16:49:19.216Z,21.66
2018-10-05T16:51:48.148Z,21.60
2018-10-05T16:54:17.033Z,21.59
2018-10-05T16:56:45.655Z,21.50
2018-10-05T16:59:15.128Z,21.37
2018-10-05T17:01:43.975Z,21.25
2018-10-05T17:04:12.602Z,21.19
2018-10-05T17:06:41.175Z,21.09
2018-10-05T17:09:11.054Z,21.04
2018-10-05T17:11:41.191Z,20.93
2018-10-05T17:14:09.764Z,20.82
2018-10-05T17:16:38.487Z,20.72
2018-10-05T17:19:07.487Z,20.62
2018-10-05T17:21:36.479Z,20.58
2018-10-05T17:24:05.144Z,20.49
2018-10-05T17:26:33.707Z,20.40
2018-10-05T17:29:02.272Z,20.32
2018-10-05T17:31:31.103Z,20.24
2018-10-05T17:34:00.824Z,20.22
2018-10-05T17:36:29.387Z,20.26
2018-10-05T17:38:58.065Z,20.24
2018-10-05T17:41:26.628Z,20.10
2018-10-05T17:43:55.204Z,20.04
2018-10-05T17:46:24.249Z,19.99
2018-10-05T17:48:52.842Z,19.96
2018-10-05T17:51:21.411Z,19.81
2018-10-05T17:53:50.115Z,19.74
2018-10-05T17:56:18.724Z,19.67
2018-10-05T17:58:47.835Z,19.59
2018-10-05T18:01:16.567Z,19.57
2018-10-05T18:03:45.145Z,19.52
2018-10-05T18:06:13.746Z,19.41
2018-10-05T18:08:42.419Z,19.35
2018-10-05T18:11:11.451Z,19.30
2018-10-05T18:13:40.024Z,19.19
2018-10-05T18:16:08.751Z,19.15
2018-10-05T18:18:38.817Z,19.21
2018-10-05T18:21:08.369Z,19.25
2018-10-05T18:23:39.130Z,19.25
2018-10-05T18:26:07.853Z,19.21
2018-10-05T18:28:36.444Z,19.23
2018-10-05T18:31:05.096Z,19.21
2018-10-05T18:33:33.724Z,19.22
2018-10-05T18:36:02.408Z,19.17
2018-10-05T18:38:30.968Z,19.08
2018-10-05T18:40:59.799Z,19.07
2018-10-05T18:43:28.391Z,19.03
2018-10-05T18:45:56.959Z,18.98
2018-10-05T18:48:25.559Z,18.96
2018-10-05T18:50:54.250Z,18.94
2018-10-05T18:53:22.787Z,18.91
2018-10-05T18:55:51.492Z,18.83
2018-10-05T18:58:20.080Z,18.79
2018-10-05T19:00:48.664Z,18.72
2018-10-05T19:03:17.259Z,18.68
2018-10-05T19:05:46.778Z,18.62
2018-10-05T19:08:17.274Z,18.57
2018-10-05T19:10:46.171Z,18.52
2018-10-05T19:13:14.767Z,18.48
2018-10-05T19:15:44.308Z,18.43
2018-10-05T19:18:12.979Z,18.36
2018-10-05T19:20:41.563Z,18.33
2018-10-05T19:23:10.160Z,18.30
2018-10-05T19:25:38.815Z,18.20
2018-10-05T19:28:07.474Z,18.12
2018-10-05T19:30:36.213Z,18.06
2018-10-05T19:33:04.859Z,17.96
2018-10-05T19:35:33.457Z,17.88
2018-10-05T19:38:02.064Z,17.84
2018-10-05T19:40:30.700Z,17.75
2018-10-05T19:42:59.483Z,17.74
2018-10-05T19:45:28.332Z,17.70
2018-10-05T19:47:56.999Z,17.67
2018-10-05T19:50:25.598Z,17.66
2018-10-05T19:52:54.820Z,17.62
2018-10-05T19:55:23.576Z,17.56
2018-10-05T19:57:52.299Z,17.51
2018-10-05T20:00:20.891Z,17.43
2018-10-05T20:02:49.600Z,17.40
2018-10-05T20:05:18.206Z,17.32
2018-10-05T20:07:46.880Z,17.24
2018-10-05T20:10:15.660Z,17.20
2018-10-05T20:12:44.292Z,17.16
2018-10-05T20:15:13.001Z,17.15
2018-10-05T20:17:41.736Z,17.05
2018-10-05T20:20:10.228Z,17.08
2018-10-05T20:22:39.260Z,17.08
2018-10-05T20:25:07.859Z,17.06
2018-10-05T20:27:36.452Z,16.98
2018-10-05T20:30:05.799Z,16.90
2018-10-05T20:32:34.472Z,16.88
2018-10-05T20:35:03.496Z,16.82
2018-10-05T20:37:32.435Z,16.70
2018-10-05T20:40:00.864Z,16.57
2018-10-05T20:42:29.470Z,16.51
2018-10-05T20:44:58.307Z,16.48
2018-10-05T20:47:27.100Z,16.38
2018-10-05T20:49:55.668Z,16.27
2018-10-05T20:52:24.437Z,16.14
2018-10-05T20:54:53.039Z,16.13
2018-10-05T20:57:21.623Z,16.06
2018-10-05T20:59:50.463Z,16.01
2018-10-05T21:02:19.051Z,15.96
2018-10-05T21:04:50.821Z,15.91
2018-10-05T21:07:19.545Z,15.84
2018-10-05T21:09:48.250Z,15.81
2018-10-05T21:12:16.872Z,15.73
2018-10-05T21:14:45.579Z,15.69
2018-10-05T21:17:14.175Z,15.73
2018-10-05T21:19:42.928Z,15.69
2018-10-05T21:22:11.668Z,15.62
2018-10-05T21:24:40.219Z,15.65
2018-10-05T21:27:08.913Z,15.66
2018-10-05T21:29:37.484Z,15.64
2018-10-05T21:32:06.143Z,15.62
2018-10-05T21:34:34.836Z,15.62
2018-10-05T21:37:03.421Z,15.59
2018-10-05T21:39:32.141Z,15.59
2018-10-05T21:42:00.824Z,15.61
2018-10-05T21:44:29.391Z,15.61
2018-10-05T21:46:57.991Z,15.59
2018-10-05T21:49:26.615Z,15.61
2018-10-05T21:51:55.244Z,15.56
2018-10-05T21:54:23.808Z,15.59
2018-10-05T21:56:52.949Z,15.62
2018-10-05T21:59:21.533Z,15.65
2018-10-05T22:01:50.444Z,15.71
2018-10-05T22:04:19.501Z,15.76
2018-10-05T22:06:48.127Z,15.76
2018-10-05T22:09:16.729Z,15.72
2018-10-05T22:11:45.373Z,15.69
2018-10-05T22:14:13.968Z,15.68
2018-10-05T22:16:42.605Z,15.66
2018-10-05T22:19:11.319Z,15.64
2018-10-05T22:21:40.031Z,15.69
2018-10-05T22:24:08.632Z,15.68
2018-10-05T22:26:37.316Z,15.70
2018-10-05T22:29:05.909Z,15.68
2018-10-05T22:31:34.588Z,15.65
2018-10-05T22:34:03.446Z,15.67
2018-10-05T22:36:32.025Z,15.70
2018-10-05T22:39:00.604Z,15.69
2018-10-05T22:41:29.364Z,15.70
2018-10-05T22:43:57.948Z,15.75
2018-10-05T22:46:26.539Z,15.81
2018-10-05T22:48:55.188Z,15.84
2018-10-05T22:51:23.772Z,15.87
2018-10-05T22:53:52.340Z,15.92
2018-10-05T22:56:21.235Z,15.91
2018-10-05T22:58:49.968Z,15.91
2018-10-05T23:01:18.544Z,15.92
2018-10-05T23:03:47.169Z,15.92
2018-10-05T23:06:16.671Z,15.97
2018-10-05T23:08:45.257Z,16.01
2018-10-05T23:11:13.907Z,16.04
2018-10-05T23:13:42.480Z,16.09
2018-10-05T23:16:11.052Z,16.12
2018-10-05T23:18:39.712Z,16.10
2018-10-05T23:21:08.292Z,16.14
2018-10-05T23:23:36.863Z,16.15
2018-10-05T23:26:05.580Z,16.16
2018-10-05T23:28:34.163Z,16.14
2018-10-05T23:31:02.728Z,16.11
2018-10-05T23:33:31.425Z,16.12
2018-10-05T23:36:00.035Z,16.08
2018-10-05T23:38:28.615Z,16.06
2018-10-05T23:40:57.235Z,16.09
2018-10-05T23:43:25.812Z,16.11
2018-10-05T23:45:54.419Z,16.14
2018-10-05T23:48:23.111Z,16.15
2018-10-05T23:50:51.704Z,16.12
2018-10-05T23:53:20.283Z,16.12
2018-10-05T23:55:48.904Z,16.04
2018-10-05T23:58:17.557Z,15.99
